Météo Nord-Pas-de-Calais   La météo au plus près de chez vous

Station météorologique

Observations météo à Caussols (06037)

06037002 1268 m Dernier relevé à 08:06
21.7°C
Humidité 73 % Vent 4.7 km/h

Journée consultée

Vendredi 4 Septembre 2026

Synthèse de la journée

Périodes de référence en UTC

Température maximale

21.7°C

à 08:06

06h 06h

Température minimale

18.1°C

à 01:36

18h 18h

Rafale maximale

17 km/h

à 02:06

00h 00h

Précipitations

0 mm

Cumul quotidien

06h 06h

Graphiques de la journée

Heure locale Réduire

Données détaillées

Relevés météo

Pas de 6 minutes Afficher les relevés infra-horaires
Relevés météo détaillés à Caussols pour le Vendredi 4 Septembre 2026
Heure Température °C Point de rosée °C Humidité % Vent moyen (raf.), km/h Précipitations mm
08:06 21.7 °C 15.3 °C 67 % 3 km/h (5 km/h) 0 mm0 mm
08:00 20.9 °C 15 °C 69 % 3 km/h (4 km/h) 0 mm0 mm
07:54 20.7 °C 15 °C 70 % 3 km/h (5 km/h) 0 mm0 mm
07:48 20.6 °C 15.4 °C 72 % 3 km/h (4 km/h) 0 mm0 mm
07:42 20.4 °C 15.4 °C 73 % 3 km/h (4 km/h) 0 mm0 mm
07:36 20.6 °C 15.4 °C 72 % 4 km/h (4 km/h) 0 mm0 mm
07:30 20.2 °C 15.4 °C 74 % 4 km/h (6 km/h) 0 mm0 mm
07:24 19.8 °C 15.2 °C 75 % 6 km/h (6 km/h) 0 mm0 mm
07:18 19.7 °C 15.1 °C 75 % 5 km/h (6 km/h) 0 mm0 mm
07:12 19.8 °C 15 °C 74 % 4 km/h (5 km/h) 0 mm0 mm
07:06 19.7 °C 14.7 °C 73 % 5 km/h (5 km/h) 0 mm0 mm
07:00 19.7 °C 14.5 °C 72 % 5 km/h (5 km/h) 0 mm0 mm
06:54 19.7 °C 14.3 °C 71 % 5 km/h (6 km/h) 0 mm0 mm
06:48 19.8 °C 14.2 °C 70 % 5 km/h (6 km/h) 0 mm0 mm
06:42 19.9 °C 12.9 °C 64 % 4 km/h (6 km/h) 0 mm0 mm
06:36 19.9 °C 9.5 °C 51 % 3 km/h (4 km/h) 0 mm0 mm
06:30 20 °C 9.8 °C 52 % 3 km/h (4 km/h) 0 mm0 mm
06:24 20.1 °C 10.8 °C 55 % 3 km/h (4 km/h) 0 mm0 mm
06:18 20 °C 10.4 °C 54 % 3 km/h (4 km/h) 0 mm0 mm
06:12 19.8 °C 10.8 °C 56 % 2 km/h (4 km/h) 0 mm0 mm
06:06 19.9 °C 10.9 °C 56 % 3 km/h (4 km/h) 0 mm0 mm
06:00 19.7 °C 11.7 °C 60 % 3 km/h (4 km/h) 0 mm0 mm
05:54 19.7 °C 11.5 °C 59 % 3 km/h (4 km/h) 0 mm0 mm
05:48 19.6 °C 11.1 °C 58 % 4 km/h (4 km/h) 0 mm0 mm
05:42 19.7 °C 10.9 °C 57 % 4 km/h (5 km/h) 0 mm0 mm
05:36 19.7 °C 11.5 °C 59 % 4 km/h (5 km/h) 0 mm0 mm
05:30 19.6 °C 11.4 °C 59 % 3 km/h (4 km/h) 0 mm0 mm
05:24 19.5 °C 8.8 °C 50 % 3 km/h (4 km/h) 0 mm0 mm
05:18 19.2 °C 7.9 °C 48 % 3 km/h (4 km/h) 0 mm0 mm
05:12 18.9 °C 7.6 °C 48 % 3 km/h (6 km/h) 0 mm0 mm
05:06 19 °C 7.1 °C 46 % 4 km/h (9 km/h) 0 mm0 mm
05:00 20.4 °C 8.7 °C 47 % 5 km/h (9 km/h) 0 mm0 mm
04:54 20.6 °C 8.9 °C 47 % 4 km/h (9 km/h) 0 mm0 mm
04:48 20.8 °C 6.7 °C 40 % 4 km/h (6 km/h) 0 mm0 mm
04:42 21 °C 6.9 °C 40 % 4 km/h (6 km/h) 0 mm0 mm
04:36 21 °C 6.9 °C 40 % 4 km/h (7 km/h) 0 mm0 mm
04:30 21.1 °C 7 °C 40 % 5 km/h (8 km/h) 0 mm0 mm
04:24 21.1 °C 7 °C 40 % 6 km/h (8 km/h) 0 mm0 mm
04:18 21 °C 7.2 °C 41 % 6 km/h (8 km/h) 0 mm0 mm
04:12 20.9 °C 7.1 °C 41 % 6 km/h (8 km/h) 0 mm0 mm
04:06 21 °C 7.2 °C 41 % 5 km/h (8 km/h) 0 mm0 mm
04:00 21.1 °C 7.3 °C 41 % 4 km/h (6 km/h) 0 mm0 mm
03:54 21.1 °C 7.3 °C 41 % 4 km/h (6 km/h) 0 mm0 mm
03:48 21.2 °C 7.4 °C 41 % 4 km/h (6 km/h) 0 mm0 mm
03:42 21.1 °C 7.3 °C 41 % 4 km/h (6 km/h) 0 mm0 mm
03:36 20.9 °C 7.5 °C 42 % 4 km/h (6 km/h) 0 mm0 mm
03:30 20.9 °C 7.5 °C 42 % 4 km/h (6 km/h) 0 mm0 mm
03:24 20.7 °C 7.7 °C 43 % 3 km/h (5 km/h) 0 mm0 mm
03:18 20.7 °C 7.7 °C 43 % 3 km/h (4 km/h) 0 mm0 mm
03:12 20.5 °C 7.5 °C 43 % 5 km/h (8 km/h) 0 mm0 mm
03:06 20.3 °C 7.3 °C 43 % 5 km/h (8 km/h) 0 mm0 mm
03:00 20.5 °C 7.5 °C 43 % 4 km/h (7 km/h) 0 mm0 mm
02:54 20.4 °C 7.4 °C 43 % 4 km/h (7 km/h) 0 mm0 mm
02:48 20.3 °C 7.3 °C 43 % 3 km/h (6 km/h) 0 mm0 mm
02:42 20.1 °C 7.1 °C 43 % 4 km/h (8 km/h) 0 mm0 mm
02:36 19.9 °C 7.3 °C 44 % 6 km/h (9 km/h) 0 mm0 mm
02:30 19.4 °C 7.5 °C 46 % 8 km/h (10 km/h) 0 mm0 mm
02:24 19.2 °C 7.3 °C 46 % 9 km/h (11 km/h) 0 mm0 mm
02:18 19.1 °C 7.5 °C 47 % 10 km/h (12 km/h) 0 mm0 mm
02:12 19.1 °C 7.8 °C 48 % 12 km/h (14 km/h) 0 mm0 mm
02:06 18.9 °C 7.9 °C 49 % 13 km/h (17 km/h) 0 mm0 mm
02:00 18.7 °C 8.1 °C 50 % 15 km/h (18 km/h) 0 mm0 mm
01:54 18.5 °C 8.5 °C 52 % 17 km/h (19 km/h) 0 mm0 mm
01:48 18.4 °C 8.9 °C 54 % 17 km/h (19 km/h) 0 mm0 mm
01:42 18.5 °C 8.7 °C 53 % 17 km/h (19 km/h) 0 mm0 mm
01:36 18.1 °C 8.9 °C 55 % 14 km/h (18 km/h) 0 mm0 mm
01:30 18.3 °C 9.1 °C 55 % 14 km/h (17 km/h) 0 mm0 mm
01:24 18.6 °C 9.1 °C 54 % 15 km/h (18 km/h) 0 mm0 mm
01:18 18.4 °C 8.9 °C 54 % 17 km/h (19 km/h) 0 mm0 mm
01:12 18.7 °C 8.9 °C 53 % 18 km/h (20 km/h) 0 mm0 mm
01:06 19.1 °C 8.7 °C 51 % 19 km/h (20 km/h) 0 mm0 mm
01:00 19.1 °C 8.7 °C 51 % 18 km/h (20 km/h) 0 mm0 mm
00:54 19.5 °C 8.8 °C 50 % 17 km/h (19 km/h) 0 mm0 mm
00:48 19 °C 8.6 °C 51 % 17 km/h (21 km/h) 0 mm0 mm
00:42 18.2 °C 8.5 °C 53 % 14 km/h (19 km/h) 0 mm0 mm
00:36 19.3 °C 8.9 °C 51 % 14 km/h (21 km/h) 0 mm0 mm
00:30 19.6 °C 8.9 °C 50 % 18 km/h (23 km/h) 0 mm0 mm
00:24 19.8 °C 9.1 °C 50 % 21 km/h (23 km/h) 0 mm0 mm
00:18 18.4 °C 8.9 °C 54 % 22 km/h (23 km/h) 0 mm0 mm
00:12 18.4 °C 9.2 °C 55 % 22 km/h (23 km/h) 0 mm0 mm
00:06 18.3 °C 9.1 °C 55 % 20 km/h (23 km/h) 0 mm0 mm
00:00 18.7 °C 8.9 °C 53 % 18 km/h (20 km/h) 0 mm0 mm

Données via Météo-France

Relevés météo à Caussols

Cette page rassemble les observations de la station de Caussols : température, humidité, vent, précipitations et pression atmosphérique. Les graphiques facilitent le suivi de la journée, tandis que le tableau donne accès aux mesures horaires et infra-horaires disponibles.

Pour replacer ces mesures dans leur contexte, consultez la climatologie de Caussols ainsi que ses normales et records. Retrouvez aussi la carte des observations météo en temps réel.